createdAt,value
2023-07-24T00:05:15.658Z,98409.34
2023-07-24T00:15:17.155Z,98406.16
2023-07-24T00:25:18.585Z,98392.63
2023-07-24T00:35:20.029Z,98391.56
2023-07-24T00:45:22.731Z,98393.44
2023-07-24T00:55:24.167Z,98377.19
2023-07-24T01:05:26.088Z,98362.03
2023-07-24T01:15:58.509Z,98349.56
2023-07-24T01:26:01.080Z,98340.91
2023-07-24T01:36:03.433Z,98314.63
2023-07-24T01:46:04.951Z,98315.69
2023-07-24T01:56:06.405Z,98305.09
2023-07-24T02:06:07.848Z,98279.16
2023-07-24T02:16:09.349Z,98297.22
2023-07-24T02:26:10.790Z,98288.22
2023-07-24T02:36:12.784Z,98270.03
2023-07-24T02:46:14.287Z,98264.63
2023-07-24T02:56:15.776Z,98264.00
2023-07-24T03:06:17.217Z,98233.69
2023-07-24T03:16:20.575Z,98219.13
2023-07-24T03:26:22.265Z,98205.59
2023-07-24T03:36:24.801Z,98199.63
2023-07-24T03:46:26.636Z,98196.34
2023-07-24T03:56:28.272Z,98202.25
2023-07-24T04:06:30.627Z,98190.84
2023-07-24T04:16:33.358Z,98185.69
2023-07-24T04:26:37.038Z,98178.66
2023-07-24T04:36:39.615Z,98189.38
2023-07-24T04:46:41.060Z,98183.66
2023-07-24T04:56:42.515Z,98203.47
2023-07-24T05:06:43.962Z,98210.44
2023-07-24T05:16:45.457Z,98206.84
2023-07-24T05:26:46.946Z,98208.16
2023-07-24T05:36:48.392Z,98218.47
2023-07-24T05:46:49.832Z,98219.63
2023-07-24T05:56:53.138Z,98224.34
2023-07-24T06:06:54.580Z,98234.31
2023-07-24T06:16:56.011Z,98256.47
2023-07-24T06:26:57.463Z,98255.47
2023-07-24T06:37:06.296Z,98252.41
2023-07-24T06:47:18.429Z,98237.53
2023-07-24T06:57:19.861Z,98247.84
2023-07-24T07:07:21.316Z,98237.47
2023-07-24T07:17:22.778Z,98228.19
2023-07-24T07:27:24.220Z,98223.88
2023-07-24T07:37:25.688Z,98230.91
2023-07-24T07:47:27.283Z,98227.91
2023-07-24T07:57:28.738Z,98206.44
2023-07-24T08:07:31.722Z,98195.94
2023-07-24T08:17:33.265Z,98193.22
2023-07-24T08:27:38.504Z,98197.16
2023-07-24T08:37:47.023Z,98216.25
2023-07-24T08:47:48.624Z,98186.06
2023-07-24T08:57:50.171Z,98177.94
2023-07-24T09:07:51.647Z,98166.28
2023-07-24T09:17:54.528Z,98192.78
2023-07-24T09:27:56.237Z,98190.63
2023-07-24T09:38:08.677Z,98180.34
2023-07-24T09:48:38.802Z,98142.19
2023-07-24T09:58:38.720Z,98131.91
2023-07-24T10:08:40.196Z,98118.06
2023-07-24T10:18:46.237Z,98119.16
2023-07-24T10:28:48.602Z,98115.88
2023-07-24T10:38:54.309Z,98101.59
2023-07-24T10:48:55.765Z,98083.56
2023-07-24T10:58:57.251Z,98077.84
2023-07-24T11:08:59.747Z,98066.72
2023-07-24T11:19:01.257Z,98045.59
2023-07-24T11:29:02.701Z,98037.19
2023-07-24T11:39:04.708Z,98006.81
2023-07-24T11:49:06.332Z,97966.41
2023-07-24T11:59:14.269Z,98116.03
2023-07-24T12:09:15.740Z,98093.72
2023-07-24T12:19:17.170Z,98135.97
2023-07-24T12:29:18.606Z,98129.44
2023-07-24T12:39:20.049Z,98099.91
2023-07-24T12:49:21.541Z,98088.19
2023-07-24T12:59:23.161Z,98078.94
2023-07-24T13:09:24.834Z,98068.59
2023-07-24T13:19:26.379Z,98098.84
2023-07-24T13:29:27.821Z,98062.56
2023-07-24T13:39:29.815Z,98045.28
2023-07-24T13:49:31.269Z,98021.47
2023-07-24T13:59:32.720Z,97996.00
2023-07-24T14:09:35.812Z,98005.97
2023-07-24T14:19:37.311Z,98046.84
2023-07-24T14:29:39.546Z,98034.94
2023-07-24T14:39:41.035Z,98027.16
2023-07-24T14:49:42.511Z,98038.06
2023-07-24T14:59:44.113Z,98017.50
2023-07-24T15:09:45.639Z,98028.34
2023-07-24T15:19:47.068Z,98010.72
2023-07-24T15:29:48.505Z,98048.84
2023-07-24T15:39:49.941Z,98066.22
2023-07-24T15:49:51.385Z,98065.44
2023-07-24T15:59:52.817Z,98073.56
2023-07-24T16:09:54.262Z,98083.00
2023-07-24T16:19:55.692Z,98077.34
2023-07-24T16:29:57.740Z,98077.09
2023-07-24T16:39:59.421Z,98079.00
2023-07-24T16:50:01.308Z,98088.19
2023-07-24T17:00:02.769Z,98106.59
2023-07-24T17:10:04.569Z,98148.81
2023-07-24T17:20:07.223Z,98184.50
2023-07-24T17:30:08.859Z,98184.19
2023-07-24T17:40:10.521Z,98204.44
2023-07-24T17:50:11.962Z,98210.41
2023-07-24T18:00:13.920Z,98228.72
2023-07-24T18:10:15.484Z,98236.19
2023-07-24T18:20:17.277Z,98225.25
2023-07-24T18:30:18.887Z,98227.03
2023-07-24T18:40:20.544Z,98233.66
2023-07-24T18:50:22.252Z,98219.50
2023-07-24T19:00:24.126Z,98226.63
2023-07-24T19:10:25.639Z,98256.78
2023-07-24T19:20:28.183Z,98281.00
2023-07-24T19:30:29.628Z,98280.34
2023-07-24T19:40:31.085Z,98296.50
2023-07-24T19:50:32.549Z,98314.53
2023-07-24T20:00:33.974Z,98325.75
2023-07-24T20:10:35.429Z,98341.34
2023-07-24T20:20:36.983Z,98339.03
2023-07-24T20:30:38.436Z,98349.72
2023-07-24T20:40:39.885Z,98347.03
2023-07-24T20:50:41.471Z,98349.13
2023-07-24T21:00:42.950Z,98345.16
2023-07-24T21:10:44.464Z,98353.50
2023-07-24T21:20:47.020Z,98359.47
2023-07-24T21:30:49.063Z,98349.97
2023-07-24T21:40:50.523Z,98354.53
2023-07-24T21:50:54.797Z,98363.72
2023-07-24T22:00:56.234Z,98360.47
2023-07-24T22:10:57.681Z,98368.31
2023-07-24T22:20:59.113Z,98373.72
2023-07-24T22:31:00.601Z,98370.75
2023-07-24T22:41:13.981Z,98370.28
2023-07-24T22:51:15.667Z,98358.66
2023-07-24T23:01:17.215Z,98359.16
2023-07-24T23:11:18.807Z,98362.09
2023-07-24T23:21:20.250Z,98362.59
2023-07-24T23:31:22.890Z,98372.81
2023-07-24T23:41:24.427Z,98375.50
2023-07-24T23:51:25.918Z,98392.19
